Irura, Spain
Current Conditions -  °F | °C
As of 5:00 PM on Friday 28 Nov 2014 (Local Time) from LESO Reporting Station
Few Clouds Few Clouds  
Wind Chill: 66°   Ceiling: Unl
Heat Index: 66°   Visibility: 6mi
Dew Point: 46°   Wind: 13mph
Humidity: 49%   Direction: 100°E
Pressure: 29.18"   Gusts: NA
Location:  43.17°N, 2.07°W
Report Text: LESO 281600Z 10011KT 050V160 9999 FEW030 19/08 Q0988
Loading
Personal Weather Stations






























Interactive Weather Map New forecast layout! Learn more

10-Day Weather Forecast

Advertisements
Track Severe Weather on mobile